Terminal Aerodrome Forecast
Issued by NWS Boston, MA

Home | Current Version | Previous Version | Text Only | Print | Product List | Glossary On
Versions: 1 2 3 4 5 6 7 8 9 10 11 12 13 14 15 16 17 18 19 20 21 22 23 24 25
000
FTUS41 KBOX 201315 AAA
TAFORH
TAF AMD
KORH 201315Z 2013/2112 18010KT P6SM SKC
     FM201500 20012KT P6SM FEW050
     FM210500 21007KT P6SM BKN080
     FM210900 20004KT 6SM BR BKN020
     FM211100 19005KT 6SM BR BKN010=

USA.gov is the U.S. government's official web portal to all federal, state and local government web resources and services.